createdAt,value
2018-05-27T00:00:00.827Z,99.9
2018-05-27T00:01:08.056Z,99.9
2018-05-27T00:02:15.290Z,99.9
2018-05-27T00:03:22.531Z,99.9
2018-05-27T00:04:29.749Z,99.9
2018-05-27T00:05:36.998Z,99.9
2018-05-27T00:06:44.213Z,99.9
2018-05-27T00:07:51.656Z,99.9
2018-05-27T00:08:58.890Z,99.9
2018-05-27T00:10:06.102Z,99.9
2018-05-27T00:11:13.316Z,99.9
2018-05-27T00:12:20.522Z,99.9
2018-05-27T00:13:27.752Z,99.9
2018-05-27T00:14:34.967Z,99.9
2018-05-27T00:15:42.180Z,99.9
2018-05-27T00:16:49.429Z,99.9
2018-05-27T00:17:56.639Z,99.9
2018-05-27T00:19:03.886Z,99.9
2018-05-27T00:20:11.099Z,99.9
2018-05-27T00:21:18.533Z,99.9
2018-05-27T00:22:25.751Z,99.9
2018-05-27T00:23:32.625Z,99.9
2018-05-27T00:24:39.831Z,99.9
2018-05-27T00:25:47.045Z,99.9
2018-05-27T00:26:54.246Z,99.9
2018-05-27T00:28:01.209Z,99.9
2018-05-27T00:29:08.425Z,99.9
2018-05-27T00:30:15.362Z,99.9
2018-05-27T00:31:22.576Z,99.9
2018-05-27T00:32:29.785Z,99.9
2018-05-27T00:33:37.007Z,99.9
2018-05-27T00:34:44.239Z,99.9
2018-05-27T00:35:51.452Z,99.9
2018-05-27T00:36:58.678Z,99.9
2018-05-27T00:38:05.904Z,99.9
2018-05-27T00:39:13.134Z,99.9
2018-05-27T00:40:20.385Z,99.9
2018-05-27T00:41:27.615Z,99.9
2018-05-27T00:42:34.828Z,99.9
2018-05-27T00:43:42.040Z,99.9
2018-05-27T00:44:48.972Z,99.9
2018-05-27T00:45:56.183Z,99.9
2018-05-27T00:47:03.390Z,99.9
2018-05-27T00:48:10.852Z,99.9
2018-05-27T00:49:18.051Z,99.9
2018-05-27T00:50:25.287Z,99.9
2018-05-27T00:51:32.511Z,99.9
2018-05-27T00:52:39.453Z,99.9
2018-05-27T00:53:46.678Z,99.9
2018-05-27T00:54:53.897Z,99.9
2018-05-27T00:56:01.127Z,99.9
2018-05-27T00:57:08.344Z,99.9
2018-05-27T00:58:15.554Z,99.9
2018-05-27T00:59:22.806Z,99.9
2018-05-27T01:00:30.035Z,99.9
2018-05-27T01:01:37.272Z,99.9
2018-05-27T01:02:44.497Z,99.9
2018-05-27T01:03:51.665Z,99.9
2018-05-27T01:04:58.883Z,99.9
2018-05-27T01:06:06.098Z,99.9
2018-05-27T01:07:13.310Z,99.9
2018-05-27T01:08:20.539Z,99.9
2018-05-27T01:09:27.755Z,99.9
2018-05-27T01:10:35.000Z,99.9
2018-05-27T01:11:42.216Z,99.9
2018-05-27T01:12:49.642Z,99.9
2018-05-27T01:13:56.574Z,99.9
2018-05-27T01:15:03.799Z,99.9
2018-05-27T01:16:11.038Z,99.9
2018-05-27T01:17:17.985Z,99.9
2018-05-27T01:18:24.934Z,99.9
2018-05-27T01:19:32.144Z,99.9
2018-05-27T01:20:39.348Z,99.9
2018-05-27T01:21:46.558Z,99.9
2018-05-27T01:22:53.777Z,99.9
2018-05-27T01:24:01.201Z,99.9
2018-05-27T01:25:08.158Z,99.9
2018-05-27T01:26:15.609Z,99.9
2018-05-27T01:27:22.831Z,99.9
2018-05-27T01:28:30.073Z,99.9
2018-05-27T01:29:37.288Z,99.9
2018-05-27T01:30:44.221Z,99.9
2018-05-27T01:31:51.430Z,99.9
2018-05-27T01:32:58.658Z,99.9
2018-05-27T01:34:05.889Z,99.9
2018-05-27T01:35:13.099Z,99.9
2018-05-27T01:36:20.331Z,99.9
2018-05-27T01:37:27.542Z,99.9
2018-05-27T01:38:34.749Z,99.9
2018-05-27T01:39:41.983Z,99.9
2018-05-27T01:40:49.196Z,99.9
2018-05-27T01:41:56.401Z,99.9
2018-05-27T01:43:03.632Z,99.9
2018-05-27T01:44:10.861Z,99.9
2018-05-27T01:45:18.095Z,99.9
2018-05-27T01:46:25.318Z,99.9
2018-05-27T01:47:32.275Z,99.9
2018-05-27T01:48:39.520Z,99.9
2018-05-27T01:49:46.765Z,99.9
2018-05-27T01:50:53.994Z,99.9
2018-05-27T01:52:01.202Z,99.9
2018-05-27T01:53:08.648Z,99.9
2018-05-27T01:54:15.853Z,99.9
2018-05-27T01:55:23.282Z,99.9
2018-05-27T01:56:30.489Z,99.9
2018-05-27T01:57:37.723Z,99.9
2018-05-27T01:58:44.681Z,99.9
2018-05-27T01:59:51.653Z,99.9
2018-05-27T02:00:58.869Z,99.9
2018-05-27T02:02:06.113Z,99.9
2018-05-27T02:03:13.331Z,99.9
2018-05-27T02:04:20.554Z,99.9
2018-05-27T02:05:27.783Z,99.9
2018-05-27T02:06:35.203Z,99.9
2018-05-27T02:07:42.413Z,99.9
2018-05-27T02:08:49.642Z,99.9
2018-05-27T02:09:56.854Z,99.9
2018-05-27T02:11:04.080Z,99.9
2018-05-27T02:12:11.288Z,99.9
2018-05-27T02:14:40.077Z,99.9
2018-05-27T02:15:47.013Z,99.9
2018-05-27T02:16:54.220Z,99.9
2018-05-27T02:18:01.457Z,99.9
2018-05-27T02:19:08.670Z,99.9
2018-05-27T02:20:15.878Z,99.9
2018-05-27T02:21:23.086Z,99.9
2018-05-27T02:22:30.292Z,99.9
2018-05-27T02:23:37.506Z,99.9
2018-05-27T02:24:44.704Z,99.9
2018-05-27T02:25:51.923Z,99.9
2018-05-27T02:26:59.192Z,99.9
2018-05-27T02:28:06.424Z,99.9
2018-05-27T02:29:13.651Z,99.9
2018-05-27T02:30:20.608Z,99.9
2018-05-27T02:31:27.824Z,99.9
2018-05-27T02:32:35.039Z,99.9
2018-05-27T02:33:41.980Z,99.9
2018-05-27T02:34:49.198Z,99.9
2018-05-27T02:35:56.439Z,99.9
2018-05-27T02:37:03.650Z,99.9
2018-05-27T02:38:10.857Z,99.9
2018-05-27T02:39:18.084Z,99.9
2018-05-27T02:40:25.044Z,99.9
2018-05-27T02:41:32.267Z,99.9
2018-05-27T02:42:39.475Z,99.9
2018-05-27T02:43:46.697Z,99.9
2018-05-27T02:46:00.797Z,99.9
2018-05-27T02:47:08.024Z,99.9
2018-05-27T02:48:14.971Z,99.9
2018-05-27T02:49:22.198Z,99.9
2018-05-27T02:50:29.408Z,99.9
2018-05-27T02:51:36.631Z,99.9
2018-05-27T02:52:43.843Z,99.9
2018-05-27T02:53:51.055Z,99.9
2018-05-27T02:54:58.263Z,99.9
2018-05-27T02:56:05.492Z,99.9
2018-05-27T02:57:12.449Z,99.9
2018-05-27T02:58:19.683Z,99.9
2018-05-27T02:59:26.881Z,99.9
2018-05-27T03:00:34.360Z,99.9
2018-05-27T03:01:41.603Z,99.9
2018-05-27T03:02:49.043Z,99.9
2018-05-27T03:03:56.254Z,99.9
2018-05-27T03:05:03.476Z,99.9
2018-05-27T03:06:10.699Z,99.9
2018-05-27T03:07:18.136Z,99.9
2018-05-27T03:08:25.351Z,99.9
2018-05-27T03:09:32.577Z,99.9
2018-05-27T03:10:39.792Z,99.9
2018-05-27T03:11:46.740Z,99.9
2018-05-27T03:12:53.951Z,99.9
2018-05-27T03:14:01.162Z,99.9
2018-05-27T03:15:08.104Z,99.9
2018-05-27T03:16:15.328Z,99.9
2018-05-27T03:17:22.534Z,99.9
2018-05-27T03:18:29.761Z,99.9
2018-05-27T03:19:36.964Z,99.9
2018-05-27T03:20:43.904Z,99.9
2018-05-27T03:21:51.111Z,99.9
2018-05-27T03:22:58.325Z,99.9
2018-05-27T03:24:05.538Z,99.9
2018-05-27T03:25:12.746Z,99.9
2018-05-27T03:26:19.956Z,99.9
2018-05-27T03:28:49.040Z,99.9
2018-05-27T03:29:56.255Z,99.9
2018-05-27T03:31:03.682Z,99.9
2018-05-27T03:32:11.266Z,99.9
2018-05-27T03:33:18.476Z,99.9
2018-05-27T03:34:25.684Z,99.9
2018-05-27T03:35:32.896Z,99.9
2018-05-27T03:36:40.105Z,99.9
2018-05-27T03:37:47.321Z,99.9
2018-05-27T03:38:54.541Z,99.9
2018-05-27T03:40:01.769Z,99.9
2018-05-27T03:41:08.711Z,99.9
2018-05-27T03:42:15.921Z,99.9
2018-05-27T03:43:22.606Z,99.9
2018-05-27T03:44:29.817Z,99.9
2018-05-27T03:45:36.758Z,99.9
2018-05-27T03:46:43.419Z,99.9
2018-05-27T03:47:50.625Z,99.9
2018-05-27T03:48:57.833Z,99.9
2018-05-27T03:50:05.044Z,99.9
2018-05-27T03:51:11.978Z,99.9
2018-05-27T03:52:19.184Z,99.9
2018-05-27T03:53:26.392Z,99.9
2018-05-27T03:54:33.597Z,99.9
2018-05-27T03:55:40.538Z,99.9
2018-05-27T03:56:47.751Z,99.9
2018-05-27T03:57:54.960Z,99.9
2018-05-27T03:59:02.172Z,99.9
2018-05-27T04:00:09.380Z,99.9
2018-05-27T04:01:16.313Z,99.9
2018-05-27T04:02:23.537Z,99.9
2018-05-27T04:03:30.747Z,99.9
2018-05-27T04:04:37.973Z,99.9
2018-05-27T04:05:45.179Z,99.9
2018-05-27T04:06:52.388Z,99.9
2018-05-27T04:09:21.200Z,99.9
2018-05-27T04:10:28.408Z,99.9
2018-05-27T04:11:35.620Z,99.9
2018-05-27T04:12:42.831Z,99.9
2018-05-27T04:13:49.765Z,99.9
2018-05-27T04:14:56.992Z,99.9
2018-05-27T04:16:04.198Z,99.9
2018-05-27T04:17:11.428Z,99.9
2018-05-27T04:18:18.359Z,99.9
2018-05-27T04:19:25.027Z,99.9
2018-05-27T04:20:31.959Z,99.9
2018-05-27T04:21:39.173Z,99.9
2018-05-27T04:22:46.383Z,99.9
2018-05-27T04:23:53.592Z,99.9
2018-05-27T04:25:00.806Z,99.9
2018-05-27T04:26:08.009Z,99.9
2018-05-27T04:27:14.672Z,99.9
2018-05-27T04:28:21.942Z,99.9
2018-05-27T04:29:29.333Z,99.9
2018-05-27T04:30:36.550Z,99.9
2018-05-27T04:31:43.788Z,99.9
2018-05-27T04:32:50.995Z,99.9
2018-05-27T04:33:57.930Z,99.9
2018-05-27T04:35:04.854Z,99.9
2018-05-27T04:36:12.066Z,99.9
2018-05-27T04:37:19.286Z,99.9
2018-05-27T04:38:26.501Z,99.9
2018-05-27T04:39:33.705Z,99.9
2018-05-27T04:40:40.917Z,99.9
2018-05-27T04:41:48.147Z,99.9
2018-05-27T04:42:55.360Z,99.9
2018-05-27T04:44:02.596Z,99.9
2018-05-27T04:45:09.837Z,99.9
2018-05-27T04:46:17.029Z,99.9
2018-05-27T04:47:23.966Z,99.9
2018-05-27T04:48:31.175Z,99.9
2018-05-27T04:49:38.384Z,99.9
2018-05-27T04:50:45.597Z,99.9
2018-05-27T04:51:52.536Z,99.9
2018-05-27T04:52:59.750Z,99.9
2018-05-27T04:54:06.953Z,99.9
2018-05-27T04:55:14.175Z,99.9
2018-05-27T04:56:21.383Z,99.9
2018-05-27T04:57:28.589Z,99.9
2018-05-27T04:58:35.851Z,99.9
2018-05-27T04:59:43.060Z,99.9
2018-05-27T05:00:49.992Z,99.9
2018-05-27T05:01:57.221Z,99.9
2018-05-27T05:03:04.440Z,99.9
2018-05-27T05:04:11.651Z,99.9
2018-05-27T05:05:18.861Z,99.9
2018-05-27T05:06:25.800Z,99.9
2018-05-27T05:07:33.043Z,99.9
2018-05-27T05:08:40.250Z,99.9
2018-05-27T05:09:47.478Z,99.9
2018-05-27T05:10:54.679Z,99.9
2018-05-27T05:12:01.897Z,99.9
2018-05-27T05:13:09.101Z,99.9
2018-05-27T05:14:16.345Z,99.9
2018-05-27T05:15:23.554Z,99.9
2018-05-27T05:16:30.783Z,99.9
2018-05-27T05:17:38.223Z,99.9
2018-05-27T05:18:45.434Z,99.9
2018-05-27T05:19:52.656Z,99.9
2018-05-27T05:20:59.883Z,99.9
2018-05-27T05:22:07.211Z,99.9
2018-05-27T05:23:14.507Z,99.9
2018-05-27T05:24:21.804Z,99.9
2018-05-27T05:25:29.207Z,99.9
2018-05-27T05:26:36.443Z,99.9
2018-05-27T05:27:43.688Z,99.9
2018-05-27T05:28:51.115Z,99.9
2018-05-27T05:29:58.356Z,99.9
2018-05-27T05:31:05.302Z,99.9
2018-05-27T05:32:12.516Z,99.9
2018-05-27T05:33:19.727Z,99.9
2018-05-27T05:34:26.936Z,99.9
2018-05-27T05:35:33.911Z,99.9
2018-05-27T05:36:41.126Z,99.9
2018-05-27T05:37:48.572Z,99.9
2018-05-27T05:38:55.786Z,99.9
2018-05-27T05:40:03.016Z,99.9
2018-05-27T05:41:10.224Z,99.9
2018-05-27T05:42:17.661Z,99.9
2018-05-27T05:43:24.863Z,99.9
2018-05-27T05:44:32.108Z,99.9
2018-05-27T05:45:38.767Z,99.9
2018-05-27T05:46:46.191Z,99.9
2018-05-27T05:47:53.420Z,99.9
2018-05-27T05:49:00.876Z,99.9
2018-05-27T05:50:08.095Z,99.9
2018-05-27T05:51:15.303Z,99.9
2018-05-27T05:52:22.508Z,99.9
2018-05-27T05:53:29.741Z,99.9
2018-05-27T05:54:36.956Z,99.9
2018-05-27T05:55:44.399Z,99.9
2018-05-27T05:56:51.618Z,99.9
2018-05-27T05:57:58.844Z,99.9
2018-05-27T05:59:06.059Z,99.9
2018-05-27T06:00:13.308Z,99.9
2018-05-27T06:01:20.516Z,99.9
2018-05-27T06:02:27.764Z,99.9
2018-05-27T06:03:34.978Z,99.9
2018-05-27T06:04:41.922Z,99.9
2018-05-27T06:05:49.134Z,99.9
2018-05-27T06:06:56.569Z,99.9
2018-05-27T06:08:03.811Z,99.9
2018-05-27T06:09:11.043Z,99.9
2018-05-27T06:10:18.260Z,99.9
2018-05-27T06:11:25.492Z,99.9
2018-05-27T06:12:32.700Z,99.9
2018-05-27T06:13:40.159Z,99.9
2018-05-27T06:14:47.094Z,99.9
2018-05-27T06:15:54.328Z,99.9
2018-05-27T06:17:01.298Z,99.9
2018-05-27T06:18:08.240Z,99.9
2018-05-27T06:19:15.168Z,99.9
2018-05-27T06:20:22.119Z,99.9
2018-05-27T06:21:29.337Z,99.9
2018-05-27T06:22:36.795Z,99.9
2018-05-27T06:23:43.729Z,99.9
2018-05-27T06:24:51.156Z,99.9
2018-05-27T06:25:58.373Z,99.9
2018-05-27T06:27:05.594Z,99.9
2018-05-27T06:28:12.809Z,99.9
2018-05-27T06:29:20.034Z,99.9
2018-05-27T06:30:26.981Z,99.9
2018-05-27T06:31:34.219Z,99.9
2018-05-27T06:32:41.441Z,99.9
2018-05-27T06:33:48.621Z,99.9
2018-05-27T06:34:55.833Z,99.9
2018-05-27T06:36:03.265Z,99.9
2018-05-27T06:37:10.495Z,99.9
2018-05-27T06:38:17.740Z,99.9
2018-05-27T06:39:24.956Z,99.9
2018-05-27T06:40:32.255Z,99.9
2018-05-27T06:41:39.543Z,99.9
2018-05-27T06:42:46.766Z,99.9
2018-05-27T06:43:53.704Z,99.9
2018-05-27T06:45:01.151Z,99.9
2018-05-27T06:46:08.357Z,99.9
2018-05-27T06:47:15.802Z,99.9
2018-05-27T06:48:23.346Z,99.9
2018-05-27T06:49:30.793Z,99.9
2018-05-27T06:50:38.008Z,99.9
2018-05-27T06:51:45.454Z,99.9
2018-05-27T06:52:52.670Z,99.9
2018-05-27T06:54:00.119Z,99.9
2018-05-27T06:55:07.355Z,99.9
2018-05-27T06:56:14.569Z,99.9
2018-05-27T06:57:21.509Z,99.9
2018-05-27T06:58:28.740Z,99.9
2018-05-27T06:59:35.960Z,99.9
2018-05-27T07:00:43.412Z,99.9
2018-05-27T07:01:50.647Z,99.9
2018-05-27T07:02:58.119Z,99.9
2018-05-27T07:04:05.350Z,99.9
2018-05-27T07:05:12.559Z,99.9
2018-05-27T07:06:19.793Z,99.9
2018-05-27T07:07:27.029Z,99.9
2018-05-27T07:08:34.244Z,99.9
2018-05-27T07:09:41.460Z,99.9
2018-05-27T07:10:48.677Z,99.9
2018-05-27T07:11:55.907Z,99.9
2018-05-27T07:13:02.858Z,99.9
2018-05-27T07:14:10.308Z,99.9
2018-05-27T07:15:17.522Z,99.9
2018-05-27T07:16:24.759Z,99.9
2018-05-27T07:17:31.997Z,99.9
2018-05-27T07:18:39.453Z,99.9
2018-05-27T07:19:46.672Z,99.9
2018-05-27T07:20:53.607Z,99.9
2018-05-27T07:22:00.833Z,99.9
2018-05-27T07:23:08.264Z,99.9
2018-05-27T07:24:15.479Z,99.9
2018-05-27T07:25:22.917Z,99.9
2018-05-27T07:26:30.137Z,99.9
2018-05-27T07:27:36.839Z,99.9
2018-05-27T07:28:44.055Z,99.9
2018-05-27T07:29:51.287Z,99.9
2018-05-27T07:30:58.234Z,99.9
2018-05-27T07:32:05.214Z,99.9
2018-05-27T07:33:12.431Z,99.9
2018-05-27T07:34:19.672Z,99.9
2018-05-27T07:35:26.892Z,99.9
2018-05-27T07:36:34.110Z,98.5
2018-05-27T07:37:41.323Z,98.4
2018-05-27T07:38:48.581Z,99.2
2018-05-27T07:39:55.798Z,99.9
2018-05-27T07:41:03.250Z,99.9
2018-05-27T07:42:10.463Z,99.9
2018-05-27T07:43:17.699Z,95
2018-05-27T07:44:24.667Z,96.8
2018-05-27T07:45:31.894Z,93.1
2018-05-27T07:46:39.139Z,91.9
2018-05-27T07:47:46.574Z,91.7
2018-05-27T07:48:53.516Z,91.3
2018-05-27T07:50:00.973Z,93
2018-05-27T07:51:07.919Z,92.3
2018-05-27T07:52:15.176Z,91.5
2018-05-27T07:53:22.387Z,82.5
2018-05-27T07:54:29.625Z,94.2
2018-05-27T07:55:36.837Z,97.7
2018-05-27T07:56:44.077Z,89.9
2018-05-27T07:57:51.293Z,88.5
2018-05-27T07:58:58.539Z,88.9
2018-05-27T08:00:05.765Z,71.9
2018-05-27T08:01:12.997Z,72
2018-05-27T08:02:20.251Z,85.7
2018-05-27T08:03:27.499Z,87.6
2018-05-27T08:04:34.714Z,89.2
2018-05-27T08:05:41.931Z,84.9
2018-05-27T08:06:49.147Z,71.9
2018-05-27T08:07:56.593Z,66.3
2018-05-27T08:09:03.538Z,76.2
2018-05-27T08:10:10.490Z,66
2018-05-27T08:11:17.430Z,78.1
2018-05-27T08:12:24.650Z,64.7
2018-05-27T08:13:31.882Z,71.4
2018-05-27T08:14:39.132Z,67.8
2018-05-27T08:15:46.353Z,67.6
2018-05-27T08:16:53.787Z,83.7
2018-05-27T08:18:01.004Z,76.3
2018-05-27T08:19:08.254Z,68.6
2018-05-27T08:20:15.237Z,72.8
2018-05-27T08:21:22.462Z,64.1
2018-05-27T08:22:29.681Z,70.5
2018-05-27T08:23:36.896Z,66.7
2018-05-27T08:24:43.848Z,69
2018-05-27T08:25:51.065Z,72.3
2018-05-27T08:26:58.288Z,74.3
2018-05-27T08:28:05.513Z,67.2
2018-05-27T08:29:12.453Z,72.8
2018-05-27T08:30:19.683Z,72
2018-05-27T08:31:26.912Z,74.7
2018-05-27T08:32:34.147Z,82.4
2018-05-27T08:33:41.370Z,88.6
2018-05-27T08:34:48.598Z,77.8
2018-05-27T08:35:55.819Z,64.9
2018-05-27T08:37:03.033Z,70.5
2018-05-27T08:38:09.984Z,60.9
2018-05-27T08:39:17.198Z,58.2
2018-05-27T08:40:24.420Z,56.2
2018-05-27T08:41:31.657Z,55.6
2018-05-27T08:42:38.871Z,57.5
2018-05-27T08:43:45.820Z,51.2
2018-05-27T08:44:53.035Z,54.9
2018-05-27T08:46:00.285Z,44.3
2018-05-27T08:47:07.234Z,51.9
2018-05-27T08:48:14.455Z,49.6
2018-05-27T08:49:21.672Z,48.5
2018-05-27T08:50:28.614Z,42.3
2018-05-27T08:51:35.835Z,35.1
2018-05-27T08:52:43.061Z,37.3
2018-05-27T08:53:50.285Z,46.4
2018-05-27T08:54:57.499Z,43.6
2018-05-27T08:56:04.716Z,53.7
2018-05-27T08:57:12.002Z,52.3
2018-05-27T08:58:19.326Z,45.4
2018-05-27T08:59:26.544Z,50
2018-05-27T09:00:33.792Z,58.3
2018-05-27T09:01:41.025Z,40.6
2018-05-27T09:02:48.262Z,44.5
2018-05-27T09:03:55.477Z,43.9
2018-05-27T09:05:02.712Z,42.3
2018-05-27T09:06:09.965Z,38.8
2018-05-27T09:07:17.197Z,41.4
2018-05-27T09:08:24.624Z,46.7
2018-05-27T09:09:31.924Z,42.1
2018-05-27T09:10:38.862Z,44.5
2018-05-27T09:11:45.803Z,36.5
2018-05-27T09:12:53.020Z,41.2
2018-05-27T09:14:00.240Z,33.3
2018-05-27T09:15:07.513Z,38.2
2018-05-27T09:16:14.916Z,31.9
2018-05-27T09:17:22.137Z,35.6
2018-05-27T09:18:29.364Z,32.8
2018-05-27T09:19:36.587Z,34.6
2018-05-27T09:20:43.820Z,34.6
2018-05-27T09:21:51.050Z,39
2018-05-27T09:22:58.284Z,41.6
2018-05-27T09:24:05.498Z,30
2018-05-27T09:25:12.717Z,29.6
2018-05-27T09:26:19.671Z,32
2018-05-27T09:27:26.909Z,41.1
2018-05-27T09:28:34.168Z,35.7
2018-05-27T09:29:41.120Z,41.9
2018-05-27T09:30:48.353Z,39.4
2018-05-27T09:31:55.671Z,38
2018-05-27T09:33:02.613Z,35.3
2018-05-27T09:34:09.849Z,39.1
2018-05-27T09:35:17.060Z,34.4
2018-05-27T09:36:24.288Z,31.6
2018-05-27T09:37:31.510Z,32.7
2018-05-27T09:38:38.769Z,31
2018-05-27T09:39:46.002Z,32
2018-05-27T09:40:52.942Z,35
2018-05-27T09:42:00.173Z,38.3
2018-05-27T09:43:07.395Z,43.2
2018-05-27T09:44:14.614Z,36.6
2018-05-27T09:45:21.932Z,30.6
2018-05-27T09:46:29.404Z,33.7
2018-05-27T09:47:36.635Z,29.7
2018-05-27T09:48:43.866Z,37.8
2018-05-27T09:49:51.095Z,33.3
2018-05-27T09:50:58.394Z,35.2
2018-05-27T09:52:05.676Z,40.5
2018-05-27T09:53:12.898Z,34.4
2018-05-27T09:54:20.116Z,34.9
2018-05-27T09:55:27.335Z,29.7
2018-05-27T09:56:34.564Z,46.9
2018-05-27T09:57:41.785Z,40
2018-05-27T09:58:48.740Z,33.4
2018-05-27T09:59:56.233Z,42
2018-05-27T10:01:03.247Z,31.7
2018-05-27T10:02:10.465Z,38.5
2018-05-27T10:03:17.677Z,33.3
2018-05-27T10:04:24.896Z,30.4
2018-05-27T10:05:32.353Z,32.3
2018-05-27T10:06:39.578Z,35
2018-05-27T10:07:46.807Z,43.3
2018-05-27T10:08:54.030Z,33.6
2018-05-27T10:10:00.992Z,30.6
2018-05-27T10:11:08.227Z,38.7
2018-05-27T10:12:15.455Z,28.4
2018-05-27T10:13:22.411Z,28.9
2018-05-27T10:14:29.656Z,35.3
2018-05-27T10:15:36.870Z,30
2018-05-27T10:16:44.129Z,28.4
2018-05-27T10:17:51.358Z,33
2018-05-27T10:18:58.623Z,25.4
2018-05-27T10:20:05.995Z,36.3
2018-05-27T10:21:13.225Z,30.8
2018-05-27T10:22:20.452Z,29.7
2018-05-27T10:23:27.661Z,27.4
2018-05-27T10:24:34.887Z,25.3
2018-05-27T10:25:41.846Z,26.2
2018-05-27T10:26:49.072Z,20.2
2018-05-27T10:27:56.293Z,25.6
2018-05-27T10:29:03.514Z,25.5
2018-05-27T10:30:10.460Z,24.2
2018-05-27T10:31:17.682Z,25.3
2018-05-27T10:32:24.902Z,26.6
2018-05-27T10:33:31.850Z,26.4
2018-05-27T10:34:38.797Z,23.9
2018-05-27T10:35:45.746Z,26
2018-05-27T10:36:52.699Z,27.2
2018-05-27T10:37:59.936Z,30.9
2018-05-27T10:39:07.194Z,31.6
2018-05-27T10:40:14.526Z,23.8
2018-05-27T10:41:21.748Z,25.9
2018-05-27T10:42:28.991Z,26
2018-05-27T10:43:36.262Z,24.5
2018-05-27T10:44:43.495Z,26.4
2018-05-27T10:45:50.727Z,28.4
2018-05-27T10:46:57.969Z,28.4
2018-05-27T10:48:05.217Z,21.5
2018-05-27T10:49:12.439Z,25.9
2018-05-27T10:50:19.667Z,25.9
2018-05-27T10:51:26.916Z,22.2
2018-05-27T10:52:34.133Z,27.4
2018-05-27T10:53:41.356Z,22
2018-05-27T10:54:48.604Z,23.9
2018-05-27T10:55:55.833Z,20.5
2018-05-27T10:57:03.073Z,24.2
2018-05-27T10:58:10.304Z,23
2018-05-27T10:59:17.550Z,26.6
2018-05-27T11:00:24.777Z,20.4
2018-05-27T11:01:31.779Z,16.6
2018-05-27T11:02:39.054Z,22.6
2018-05-27T11:03:46.274Z,19.2
2018-05-27T11:04:53.505Z,21.5
2018-05-27T11:06:00.795Z,25.3
2018-05-27T11:07:08.365Z,26.1
2018-05-27T11:08:15.590Z,22.4
2018-05-27T11:09:22.826Z,22.7
2018-05-27T11:10:29.792Z,20.1
2018-05-27T11:11:37.005Z,19.3
2018-05-27T11:12:44.229Z,17
2018-05-27T11:13:51.456Z,16.6
2018-05-27T11:14:58.693Z,19.9
2018-05-27T11:16:05.917Z,22.3
2018-05-27T11:17:13.151Z,17.7
2018-05-27T11:18:20.377Z,23.2
2018-05-27T11:19:27.624Z,23.6
2018-05-27T11:20:34.844Z,16.3
2018-05-27T11:21:42.080Z,20.1
2018-05-27T11:22:49.313Z,19.1
2018-05-27T11:23:56.539Z,23.7
2018-05-27T11:25:03.773Z,13.9
2018-05-27T11:26:11.000Z,18.5
2018-05-27T11:27:18.223Z,17.6
2018-05-27T11:28:25.449Z,20.8
2018-05-27T11:29:32.674Z,27.3
2018-05-27T11:30:39.893Z,16
2018-05-27T11:31:46.849Z,17
2018-05-27T11:32:54.069Z,20.1
2018-05-27T11:34:01.299Z,19
2018-05-27T11:35:08.524Z,20.8
2018-05-27T11:36:15.784Z,16.5
2018-05-27T11:37:23.004Z,20.2
2018-05-27T11:38:30.215Z,14.8
2018-05-27T11:39:37.434Z,18.8
2018-05-27T11:40:44.387Z,17.3
2018-05-27T11:41:51.061Z,16.7
2018-05-27T11:42:58.289Z,18.6
2018-05-27T11:44:05.517Z,17.7
2018-05-27T11:45:12.735Z,15.6
2018-05-27T11:46:19.693Z,21.6
2018-05-27T11:47:26.939Z,23.4
2018-05-27T11:48:34.208Z,15.4
2018-05-27T11:49:41.498Z,15.7
2018-05-27T11:50:48.741Z,20.5
2018-05-27T11:51:55.699Z,21.2
2018-05-27T11:53:02.923Z,18.9
2018-05-27T11:54:09.899Z,18
2018-05-27T11:55:17.200Z,18.9
2018-05-27T11:56:24.423Z,17.7
2018-05-27T11:57:31.642Z,15.1
2018-05-27T11:58:38.861Z,14.5
2018-05-27T11:59:46.092Z,22
2018-05-27T12:02:14.938Z,13.9
2018-05-27T12:03:22.175Z,15.5
2018-05-27T12:04:29.405Z,13.3
2018-05-27T12:05:36.360Z,14.4
2018-05-27T12:06:43.603Z,14.7
2018-05-27T12:07:50.830Z,14.9
2018-05-27T12:08:58.162Z,14.7
2018-05-27T12:10:05.661Z,19.9
2018-05-27T12:11:12.907Z,16.7
2018-05-27T12:12:20.160Z,16.2
2018-05-27T12:13:27.404Z,23.4
2018-05-27T12:14:34.644Z,15.7
2018-05-27T12:15:41.888Z,17
2018-05-27T12:16:49.144Z,17.4
2018-05-27T12:17:56.387Z,15.9
2018-05-27T12:19:03.611Z,18.3
2018-05-27T12:20:10.837Z,19.6
2018-05-27T12:21:18.057Z,16.9
2018-05-27T12:22:25.281Z,18.7
2018-05-27T12:23:32.771Z,15.4
2018-05-27T12:24:39.734Z,17.8
2018-05-27T12:25:46.965Z,14
2018-05-27T12:26:54.188Z,16.4
2018-05-27T12:28:01.412Z,18.2
2018-05-27T12:29:08.654Z,20.7
2018-05-27T12:30:16.107Z,18
2018-05-27T12:31:23.330Z,13.2
2018-05-27T12:32:30.785Z,16.4
2018-05-27T12:33:38.005Z,22
2018-05-27T12:34:45.241Z,20.3
2018-05-27T12:35:52.198Z,19.8
2018-05-27T12:36:59.491Z,14.5
2018-05-27T12:38:06.712Z,26.6
2018-05-27T12:39:13.960Z,18.8
2018-05-27T12:40:21.185Z,12.4
2018-05-27T12:41:28.426Z,14.2
2018-05-27T12:42:35.390Z,15.5
2018-05-27T12:43:42.086Z,17.5
2018-05-27T12:44:48.772Z,17.7
2018-05-27T12:45:56.000Z,19.6
2018-05-27T12:47:03.218Z,19.4
2018-05-27T12:48:10.675Z,16.4
2018-05-27T12:49:17.900Z,19.2
2018-05-27T12:50:25.116Z,17.1
2018-05-27T12:51:32.355Z,13
2018-05-27T12:52:39.809Z,16.6
2018-05-27T12:53:47.030Z,13.4
2018-05-27T12:54:54.247Z,14.9
2018-05-27T12:56:01.203Z,15.1
2018-05-27T12:57:08.445Z,15.8
2018-05-27T12:58:15.673Z,13.8
2018-05-27T12:59:22.653Z,16
2018-05-27T13:00:29.876Z,18.7
2018-05-27T13:01:37.144Z,16.6
2018-05-27T13:02:44.380Z,14.3
2018-05-27T13:03:51.317Z,12.8
2018-05-27T13:04:58.538Z,12.8
2018-05-27T13:06:05.764Z,14
2018-05-27T13:07:12.986Z,16.1
2018-05-27T13:08:19.934Z,13.8
2018-05-27T13:09:27.159Z,17.9
2018-05-27T13:10:34.381Z,15.7
2018-05-27T13:11:41.605Z,16.5
2018-05-27T13:12:48.838Z,16
2018-05-27T13:13:56.062Z,12
2018-05-27T13:15:03.009Z,13
2018-05-27T13:16:10.244Z,15.4
2018-05-27T13:17:17.470Z,15.8
2018-05-27T13:18:24.714Z,19.2
2018-05-27T13:19:31.926Z,15
2018-05-27T13:20:39.204Z,18.1
2018-05-27T13:21:46.145Z,15.7
2018-05-27T13:22:53.371Z,17.5
2018-05-27T13:24:00.304Z,17.8
2018-05-27T13:25:07.718Z,21.4
2018-05-27T13:26:14.937Z,20.2
2018-05-27T13:27:22.160Z,21.3
2018-05-27T13:28:29.391Z,14.4
2018-05-27T13:29:36.612Z,12.9
2018-05-27T13:30:43.861Z,17.4
2018-05-27T13:31:51.102Z,16
2018-05-27T13:32:58.322Z,17.9
2018-05-27T13:34:05.542Z,13.1
2018-05-27T13:35:12.772Z,14.2
2018-05-27T13:36:19.994Z,18.5
2018-05-27T13:37:27.233Z,11.8
2018-05-27T13:38:34.455Z,15.5
2018-05-27T13:39:41.426Z,23.7
2018-05-27T13:40:48.706Z,17.9
2018-05-27T13:41:55.875Z,18.9
2018-05-27T13:43:03.102Z,13.7
2018-05-27T13:44:10.330Z,9.7
2018-05-27T13:45:17.278Z,7.9
2018-05-27T13:46:24.502Z,17.7
2018-05-27T13:47:31.730Z,13.5
2018-05-27T13:48:38.968Z,11.5
2018-05-27T13:49:46.185Z,10.8
2018-05-27T13:50:53.418Z,11.9
2018-05-27T13:52:00.636Z,15.7
2018-05-27T13:53:07.866Z,13.3
2018-05-27T13:54:15.090Z,9.1
2018-05-27T13:55:22.394Z,12.5
2018-05-27T13:56:29.663Z,11.6
2018-05-27T13:57:36.880Z,9.9
2018-05-27T13:58:44.109Z,12.1
2018-05-27T13:59:51.334Z,16.1
2018-05-27T14:00:58.562Z,13.7
2018-05-27T14:02:05.507Z,13.3
2018-05-27T14:03:12.735Z,14.6
2018-05-27T14:04:19.963Z,16.3
2018-05-27T14:05:27.186Z,11.8
2018-05-27T14:06:34.163Z,11.7
2018-05-27T14:07:41.173Z,10.5
2018-05-27T14:08:48.406Z,12.5
2018-05-27T14:09:55.788Z,12.6
2018-05-27T14:11:02.758Z,11.8
2018-05-27T14:12:09.987Z,14.3
2018-05-27T14:13:17.212Z,13.2
2018-05-27T14:14:24.433Z,12.3
2018-05-27T14:15:31.660Z,14.5
2018-05-27T14:16:38.875Z,12
2018-05-27T14:17:46.098Z,10.9
2018-05-27T14:18:53.324Z,11.5
2018-05-27T14:20:00.553Z,11.3
2018-05-27T14:21:07.791Z,10.3
2018-05-27T14:22:15.020Z,8
2018-05-27T14:23:21.432Z,16.7
2018-05-27T14:24:28.652Z,13.2
2018-05-27T14:25:35.888Z,14.8
2018-05-27T14:26:43.108Z,7.9
2018-05-27T14:27:50.333Z,8.8
2018-05-27T14:28:57.567Z,6.1
2018-05-27T14:30:04.801Z,7.3
2018-05-27T14:31:12.020Z,14.5
2018-05-27T14:32:18.970Z,17.1
2018-05-27T14:33:25.932Z,11.7
2018-05-27T14:34:33.178Z,11.3
2018-05-27T14:35:40.401Z,11
2018-05-27T14:36:47.661Z,11.4
2018-05-27T14:37:54.876Z,11.3
2018-05-27T14:39:02.104Z,12.6
2018-05-27T14:40:09.334Z,11.3
2018-05-27T14:41:16.569Z,13.4
2018-05-27T14:42:23.822Z,14
2018-05-27T14:43:31.053Z,10.5
2018-05-27T14:44:38.289Z,12
2018-05-27T14:45:45.509Z,13.7
2018-05-27T14:46:52.742Z,10.3
2018-05-27T14:47:59.966Z,14.1
2018-05-27T14:49:07.189Z,10
2018-05-27T14:50:14.405Z,15.8
2018-05-27T14:51:21.667Z,12.9
2018-05-27T14:52:28.918Z,13.5
2018-05-27T14:53:36.163Z,12.1
2018-05-27T14:54:43.396Z,11.7
2018-05-27T14:55:50.638Z,13.3
2018-05-27T14:56:57.860Z,9.9
2018-05-27T14:58:05.171Z,13.8
2018-05-27T14:59:12.622Z,16.6
2018-05-27T15:00:19.848Z,10.6
2018-05-27T15:01:27.073Z,14.1
2018-05-27T15:02:34.311Z,14.2
2018-05-27T15:03:41.543Z,14.7